createdAt,value
2022-12-17T00:00:28.409Z,24.33
2022-12-17T00:03:17.885Z,20.67
2022-12-17T00:06:04.034Z,20.60
2022-12-17T00:08:50.073Z,18.13
2022-12-17T00:11:36.010Z,18.27
2022-12-17T00:14:21.956Z,22.35
2022-12-17T00:17:07.955Z,18.50
2022-12-17T00:19:53.959Z,24.45
2022-12-17T00:22:42.527Z,27.90
2022-12-17T00:25:28.595Z,29.15
2022-12-17T00:28:14.518Z,21.15
2022-12-17T00:31:00.755Z,33.95
2022-12-17T00:33:46.412Z,28.88
2022-12-17T00:36:32.443Z,25.40
2022-12-17T00:39:18.341Z,23.95
2022-12-17T00:42:04.321Z,24.00
2022-12-17T00:44:50.295Z,23.63
2022-12-17T00:47:36.449Z,24.77
2022-12-17T00:50:22.424Z,19.50
2022-12-17T00:53:08.497Z,23.55
2022-12-17T00:55:54.553Z,21.13
2022-12-17T00:58:42.885Z,25.42
2022-12-17T01:01:28.903Z,17.27
2022-12-17T01:04:15.003Z,18.88
2022-12-17T01:07:00.773Z,19.95
2022-12-17T01:09:46.775Z,20.95
2022-12-17T01:12:32.526Z,16.15
2022-12-17T01:15:18.569Z,19.10
2022-12-17T01:18:04.603Z,20.77
2022-12-17T01:20:50.489Z,19.98
2022-12-17T01:23:36.775Z,20.73
2022-12-17T01:26:22.976Z,15.18
2022-12-17T01:29:08.920Z,13.88
2022-12-17T01:31:55.033Z,10.00
2022-12-17T01:34:40.802Z,12.85
2022-12-17T01:37:26.939Z,14.00
2022-12-17T01:40:13.019Z,13.18
2022-12-17T01:43:03.478Z,19.17
2022-12-17T01:46:15.119Z,20.67
2022-12-17T01:49:02.256Z,12.65
2022-12-17T01:51:49.263Z,15.65
2022-12-17T01:54:35.389Z,13.75
2022-12-17T01:57:21.924Z,14.38
2022-12-17T02:00:14.428Z,13.57
2022-12-17T02:03:00.563Z,12.05
2022-12-17T02:05:55.529Z,15.38
2022-12-17T02:08:47.873Z,15.88
2022-12-17T02:11:37.812Z,16.40
2022-12-17T02:14:32.476Z,14.10
2022-12-17T02:17:20.297Z,12.30
2022-12-17T02:20:12.159Z,15.15
2022-12-17T02:23:13.117Z,11.82
2022-12-17T02:26:05.677Z,9.40
2022-12-17T02:28:52.125Z,12.05
2022-12-17T02:31:38.643Z,11.25
2022-12-17T02:34:24.716Z,11.82
2022-12-17T02:37:10.675Z,11.05
2022-12-17T02:39:56.740Z,13.38
2022-12-17T02:42:43.320Z,19.88
2022-12-17T02:45:29.403Z,17.75
2022-12-17T02:48:15.827Z,13.15
2022-12-17T02:51:02.079Z,21.73
2022-12-17T02:53:48.103Z,14.68
2022-12-17T02:56:34.055Z,15.02
2022-12-17T02:59:19.942Z,15.52
2022-12-17T03:02:06.143Z,12.00
2022-12-17T03:04:52.087Z,13.95
2022-12-17T03:07:38.099Z,15.73
2022-12-17T03:10:24.121Z,13.40
2022-12-17T03:13:10.184Z,15.05
2022-12-17T03:15:56.090Z,14.88
2022-12-17T03:18:41.972Z,15.25
2022-12-17T03:21:27.961Z,14.27
2022-12-17T03:24:14.112Z,12.77
2022-12-17T03:27:00.176Z,14.40
2022-12-17T03:29:46.153Z,13.77
2022-12-17T03:32:32.108Z,17.80
2022-12-17T03:35:18.081Z,13.02
2022-12-17T03:38:04.041Z,18.45
2022-12-17T03:40:50.108Z,15.95
2022-12-17T03:43:36.256Z,12.55
2022-12-17T03:46:22.486Z,15.75
2022-12-17T03:49:08.385Z,14.43
2022-12-17T03:51:54.112Z,20.55
2022-12-17T03:54:40.037Z,18.05
2022-12-17T03:57:26.092Z,19.83
2022-12-17T04:00:11.950Z,15.45
2022-12-17T04:02:58.299Z,14.52
2022-12-17T04:05:44.334Z,18.67
2022-12-17T04:08:30.188Z,14.85
2022-12-17T04:11:16.105Z,18.15
2022-12-17T04:14:02.091Z,13.02
2022-12-17T04:16:48.151Z,11.00
2022-12-17T04:19:34.252Z,12.13
2022-12-17T04:22:20.241Z,12.88
2022-12-17T04:25:06.231Z,12.50
2022-12-17T04:27:51.967Z,13.88
2022-12-17T04:30:37.894Z,11.38
2022-12-17T04:33:23.753Z,12.23
2022-12-17T04:36:09.706Z,16.88
2022-12-17T04:38:55.707Z,12.75
2022-12-17T04:41:41.734Z,10.10
2022-12-17T04:44:27.676Z,16.73
2022-12-17T04:47:13.869Z,13.80
2022-12-17T04:49:59.701Z,15.80
2022-12-17T04:52:45.884Z,14.50
2022-12-17T04:55:31.927Z,11.98
2022-12-17T04:58:24.425Z,10.70
2022-12-17T05:01:13.608Z,19.00
2022-12-17T05:03:59.927Z,15.73
2022-12-17T05:06:45.813Z,12.25
2022-12-17T05:09:31.724Z,9.00
2022-12-17T05:12:17.471Z,8.93
2022-12-17T05:15:03.658Z,8.85
2022-12-17T05:17:49.523Z,9.50
2022-12-17T05:20:35.490Z,9.43
2022-12-17T05:23:25.120Z,16.85
2022-12-17T05:26:17.277Z,9.18
2022-12-17T05:29:03.056Z,8.38
2022-12-17T05:31:49.093Z,8.13
2022-12-17T05:34:35.093Z,9.57
2022-12-17T05:37:21.222Z,8.15
2022-12-17T05:40:12.431Z,7.75
2022-12-17T05:45:44.547Z,8.18
2022-12-17T05:48:30.641Z,9.73
2022-12-17T05:51:16.678Z,9.85
2022-12-17T05:54:02.548Z,10.32
2022-12-17T05:56:48.493Z,9.35
2022-12-17T05:59:34.538Z,9.18
2022-12-17T06:02:20.523Z,12.90
2022-12-17T06:05:06.361Z,12.50
2022-12-17T06:07:52.318Z,13.57
2022-12-17T06:10:38.628Z,14.57
2022-12-17T06:13:24.710Z,14.38
2022-12-17T06:16:10.796Z,15.20
2022-12-17T06:18:56.698Z,15.88
2022-12-17T06:21:42.772Z,15.60
2022-12-17T06:24:28.604Z,16.08
2022-12-17T06:27:14.673Z,18.50
2022-12-17T06:30:00.619Z,18.65
2022-12-17T06:32:46.709Z,18.17
2022-12-17T06:35:32.779Z,18.30
2022-12-17T06:38:19.284Z,27.27
2022-12-17T06:41:05.161Z,17.58
2022-12-17T06:43:51.196Z,20.65
2022-12-17T06:46:37.129Z,26.17
2022-12-17T06:49:22.916Z,23.17
2022-12-17T06:52:08.636Z,21.33
2022-12-17T06:54:54.591Z,19.08
2022-12-17T06:57:41.846Z,24.85
2022-12-17T07:00:30.834Z,20.50
2022-12-17T07:03:17.269Z,23.08
2022-12-17T07:06:03.442Z,22.05
2022-12-17T07:08:49.479Z,26.98
2022-12-17T07:11:35.479Z,23.17
2022-12-17T07:14:29.144Z,23.98
2022-12-17T07:17:15.269Z,24.95
2022-12-17T07:20:01.276Z,20.08
2022-12-17T07:22:47.263Z,23.65
2022-12-17T07:25:33.253Z,16.10
2022-12-17T07:28:19.168Z,17.25
2022-12-17T07:31:05.059Z,19.90
2022-12-17T07:33:51.306Z,26.20
2022-12-17T07:36:37.152Z,27.52
2022-12-17T07:39:23.272Z,25.10
2022-12-17T07:42:09.300Z,22.83
2022-12-17T07:44:54.973Z,30.42
2022-12-17T07:47:40.888Z,39.78
2022-12-17T07:50:26.897Z,29.27
2022-12-17T07:53:22.887Z,26.73
2022-12-17T07:56:08.794Z,26.15
2022-12-17T07:58:54.800Z,26.02
2022-12-17T08:01:40.990Z,23.58
2022-12-17T08:04:26.761Z,24.10
2022-12-17T08:07:14.271Z,26.65
2022-12-17T08:09:59.959Z,22.58
2022-12-17T08:12:50.283Z,28.00
2022-12-17T08:15:36.265Z,35.20
2022-12-17T08:18:26.502Z,26.20
2022-12-17T08:21:12.946Z,23.73
2022-12-17T08:23:58.925Z,24.13
2022-12-17T08:26:48.097Z,29.35
2022-12-17T08:29:34.573Z,30.75
2022-12-17T08:32:20.538Z,30.50
2022-12-17T08:35:06.636Z,30.77
2022-12-17T08:37:52.513Z,32.47
2022-12-17T08:40:38.467Z,30.42
2022-12-17T08:43:24.517Z,33.70
2022-12-17T08:46:11.522Z,32.35
2022-12-17T08:48:57.563Z,31.83
2022-12-17T08:51:45.094Z,41.40
2022-12-17T08:54:30.788Z,38.33
2022-12-17T08:57:30.636Z,36.67
2022-12-17T09:00:17.316Z,33.28
2022-12-17T09:03:03.305Z,31.27
2022-12-17T09:05:49.124Z,36.45
2022-12-17T09:08:35.171Z,35.60
2022-12-17T09:11:21.261Z,36.50
2022-12-17T09:14:07.376Z,36.58
2022-12-17T09:16:53.337Z,47.67
2022-12-17T09:19:39.144Z,38.13
2022-12-17T09:22:25.171Z,44.08
2022-12-17T09:25:11.110Z,37.08
2022-12-17T09:27:57.035Z,37.40
2022-12-17T09:30:43.077Z,39.72
2022-12-17T09:33:33.449Z,39.13
2022-12-17T09:36:21.791Z,36.00
2022-12-17T09:39:08.277Z,37.00
2022-12-17T09:42:07.462Z,38.63
2022-12-17T09:45:12.680Z,41.00
2022-12-17T09:48:14.696Z,31.52
2022-12-17T09:51:00.715Z,45.05
2022-12-17T09:53:56.426Z,47.30
2022-12-17T09:56:43.965Z,48.47
2022-12-17T09:59:36.321Z,54.08
2022-12-17T10:02:23.389Z,53.78
2022-12-17T10:05:09.431Z,44.65
2022-12-17T10:07:57.370Z,61.88
2022-12-17T10:10:44.951Z,57.03
2022-12-17T10:13:31.959Z,53.63
2022-12-17T10:16:18.057Z,41.67
2022-12-17T10:19:04.501Z,45.53
2022-12-17T10:21:50.907Z,41.15
2022-12-17T10:24:36.880Z,53.97
2022-12-17T10:27:36.705Z,50.47
2022-12-17T10:30:22.735Z,40.75
2022-12-17T10:33:15.385Z,41.63
2022-12-17T10:36:01.307Z,37.00
2022-12-17T10:38:49.049Z,48.47
2022-12-17T10:41:45.067Z,45.30
2022-12-17T10:44:47.433Z,42.67
2022-12-17T10:47:35.601Z,41.08
2022-12-17T10:50:22.997Z,46.33
2022-12-17T10:53:08.968Z,44.05
2022-12-17T10:55:55.575Z,46.17
2022-12-17T10:58:41.401Z,48.22
2022-12-17T11:01:30.209Z,42.22
2022-12-17T11:04:19.036Z,58.08
2022-12-17T11:07:10.168Z,58.45
2022-12-17T11:10:02.409Z,39.65
2022-12-17T11:12:57.622Z,34.47
2022-12-17T11:15:51.169Z,32.45
2022-12-17T11:18:40.581Z,36.33
2022-12-17T11:21:32.798Z,33.90
2022-12-17T11:24:22.449Z,38.85
2022-12-17T11:27:11.033Z,46.50
2022-12-17T11:29:57.108Z,41.03
2022-12-17T11:32:51.028Z,39.03
2022-12-17T11:35:49.941Z,38.13
2022-12-17T11:38:36.098Z,36.83
2022-12-17T11:41:26.172Z,31.75
2022-12-17T11:44:21.236Z,34.63
2022-12-17T11:47:07.254Z,29.20
2022-12-17T11:50:07.589Z,28.15
2022-12-17T11:52:56.212Z,27.17
2022-12-17T11:56:00.036Z,27.27
2022-12-17T11:58:56.549Z,26.70
2022-12-17T12:01:57.255Z,23.35
2022-12-17T12:04:56.787Z,23.03
2022-12-17T12:07:42.568Z,22.92
2022-12-17T12:10:51.218Z,22.02
2022-12-17T12:13:43.649Z,21.85
2022-12-17T12:16:43.986Z,21.33
2022-12-17T12:19:36.098Z,24.52
2022-12-17T12:22:27.311Z,23.77
2022-12-17T12:25:22.300Z,23.30
2022-12-17T12:28:15.174Z,22.38
2022-12-17T12:31:03.730Z,22.05
2022-12-17T12:34:09.912Z,19.92
2022-12-17T12:36:57.561Z,23.00
2022-12-17T12:40:12.812Z,22.30
2022-12-17T12:43:02.759Z,22.20
2022-12-17T12:45:59.434Z,21.88
2022-12-17T12:48:50.423Z,20.70
2022-12-17T12:51:55.693Z,20.67
2022-12-17T12:54:44.288Z,22.75
2022-12-17T12:57:45.156Z,22.95
2022-12-17T13:00:44.505Z,22.38
2022-12-17T13:03:39.789Z,23.05
2022-12-17T13:06:07.572Z,26.10
2022-12-17T13:08:34.925Z,25.13
2022-12-17T13:11:21.317Z,21.92
2022-12-17T13:13:56.117Z,22.27
2022-12-17T13:16:33.154Z,21.75
2022-12-17T13:19:18.981Z,19.63
2022-12-17T13:21:47.039Z,24.70
2022-12-17T13:24:23.592Z,22.27
2022-12-17T13:26:50.815Z,23.15
2022-12-17T13:29:27.683Z,33.13
2022-12-17T13:31:58.030Z,28.35
2022-12-17T13:34:49.734Z,23.53
2022-12-17T13:37:22.984Z,24.60
2022-12-17T13:39:58.550Z,17.75
2022-12-17T13:42:32.754Z,18.92
2022-12-17T13:45:00.089Z,20.83
2022-12-17T13:47:31.985Z,22.13
2022-12-17T13:52:47.356Z,25.55
2022-12-17T13:55:32.413Z,24.20
2022-12-17T13:57:59.528Z,25.65
2022-12-17T14:00:27.841Z,21.75
2022-12-17T14:02:55.378Z,24.85
2022-12-17T14:05:42.393Z,25.40
2022-12-17T14:08:09.845Z,24.85
2022-12-17T14:10:38.857Z,26.67
2022-12-17T14:13:14.440Z,26.20
2022-12-17T14:15:45.889Z,25.15
2022-12-17T14:18:15.491Z,18.08
2022-12-17T14:20:42.645Z,20.30
2022-12-17T14:23:12.872Z,18.90
2022-12-17T14:25:41.031Z,20.67
2022-12-17T14:28:21.552Z,22.08
2022-12-17T14:31:24.857Z,21.80
2022-12-17T14:33:37.798Z,19.67
2022-12-17T14:36:17.569Z,18.40
2022-12-17T14:38:56.153Z,20.83
2022-12-17T14:41:44.027Z,21.30
2022-12-17T14:44:21.585Z,20.00
2022-12-17T14:46:49.353Z,23.77
2022-12-17T14:49:18.548Z,27.20
2022-12-17T14:51:46.009Z,27.15
2022-12-17T14:54:22.339Z,24.05
2022-12-17T14:56:50.550Z,24.15
2022-12-17T14:59:24.233Z,17.30
2022-12-17T15:01:55.941Z,19.83
2022-12-17T15:04:23.865Z,15.93
2022-12-17T15:06:53.759Z,16.15
2022-12-17T15:09:20.876Z,18.42
2022-12-17T15:11:49.170Z,19.23
2022-12-17T15:14:16.479Z,18.80
2022-12-17T15:16:43.681Z,18.90
2022-12-17T15:19:10.928Z,18.27
2022-12-17T15:21:38.291Z,20.33
2022-12-17T15:24:07.404Z,18.25
2022-12-17T15:26:34.611Z,18.77
2022-12-17T15:29:02.428Z,19.63
2022-12-17T15:31:35.024Z,17.80
2022-12-17T15:34:02.726Z,16.80
2022-12-17T15:36:31.826Z,17.73
2022-12-17T15:38:59.079Z,17.30
2022-12-17T15:41:44.738Z,22.08
2022-12-17T15:44:11.847Z,24.88
2022-12-17T15:46:39.755Z,28.52
2022-12-17T15:49:07.007Z,32.30
2022-12-17T15:51:34.109Z,31.05
2022-12-17T15:54:01.234Z,29.55
2022-12-17T15:56:29.049Z,29.75
2022-12-17T15:58:59.349Z,27.23
2022-12-17T16:01:26.543Z,17.20
2022-12-17T16:03:53.949Z,15.60
2022-12-17T16:06:21.112Z,15.82
2022-12-17T16:08:48.214Z,16.55
2022-12-17T16:11:16.146Z,17.30
2022-12-17T16:13:43.561Z,17.15
2022-12-17T16:16:10.795Z,17.25
2022-12-17T16:18:41.336Z,15.43
2022-12-17T16:21:09.794Z,12.75
2022-12-17T16:23:36.957Z,16.08
2022-12-17T16:26:05.429Z,16.50
2022-12-17T16:28:33.068Z,15.57
2022-12-17T16:31:01.455Z,17.98
2022-12-17T16:33:35.594Z,15.63
2022-12-17T16:36:03.639Z,14.70
2022-12-17T16:38:30.818Z,15.25
2022-12-17T16:40:58.988Z,12.38
2022-12-17T16:43:26.237Z,14.23
2022-12-17T16:45:54.239Z,14.38
2022-12-17T16:48:22.222Z,14.48
2022-12-17T16:50:50.133Z,13.70
2022-12-17T16:53:18.314Z,13.77
2022-12-17T16:55:49.564Z,14.02
2022-12-17T17:00:45.219Z,14.20
2022-12-17T17:03:12.608Z,13.10
2022-12-17T17:05:40.587Z,12.82
2022-12-17T17:08:07.993Z,9.38
2022-12-17T17:10:36.216Z,8.95
2022-12-17T17:13:03.587Z,9.35
2022-12-17T17:15:30.712Z,7.38
2022-12-17T17:18:01.498Z,7.65
2022-12-17T17:20:32.244Z,8.85
2022-12-17T17:22:59.846Z,9.13
2022-12-17T17:25:43.964Z,8.07
2022-12-17T17:28:14.249Z,7.32
2022-12-17T17:30:41.372Z,8.38
2022-12-17T17:33:08.757Z,7.72
2022-12-17T17:35:35.936Z,7.38
2022-12-17T17:38:03.059Z,6.97
2022-12-17T17:40:30.184Z,6.57
2022-12-17T17:42:57.360Z,6.85
2022-12-17T17:45:24.475Z,7.03
2022-12-17T17:47:51.608Z,7.97
2022-12-17T17:50:18.819Z,7.57
2022-12-17T17:52:46.018Z,6.82
2022-12-17T17:55:13.124Z,7.00
2022-12-17T17:57:40.411Z,4.65
2022-12-17T18:00:07.778Z,5.47
2022-12-17T18:02:35.008Z,6.40
2022-12-17T18:05:02.285Z,5.95
2022-12-17T18:07:29.411Z,6.63
2022-12-17T18:09:56.885Z,5.72
2022-12-17T18:12:43.101Z,5.50
2022-12-17T18:15:15.396Z,5.30
2022-12-17T18:17:44.635Z,3.65
2022-12-17T18:20:12.096Z,4.70
2022-12-17T18:22:39.213Z,2.58
2022-12-17T18:25:06.488Z,4.45
2022-12-17T18:27:33.621Z,5.25
2022-12-17T18:30:00.831Z,4.20
2022-12-17T18:32:28.040Z,3.55
2022-12-17T18:34:55.215Z,4.47
2022-12-17T18:37:22.364Z,5.07
2022-12-17T18:39:49.681Z,5.63
2022-12-17T18:42:35.672Z,5.88
2022-12-17T18:45:03.301Z,5.82
2022-12-17T18:47:30.595Z,5.05
2022-12-17T18:49:57.804Z,4.13
2022-12-17T18:52:25.068Z,4.05
2022-12-17T18:54:52.204Z,2.47
2022-12-17T18:57:19.410Z,3.25
2022-12-17T18:59:46.576Z,3.33
2022-12-17T19:02:14.115Z,3.53
2022-12-17T19:04:41.869Z,2.70
2022-12-17T19:07:09.256Z,3.00
2022-12-17T19:09:36.810Z,2.58
2022-12-17T19:12:05.093Z,3.15
2022-12-17T19:14:32.267Z,3.40
2022-12-17T19:16:59.502Z,3.10
2022-12-17T19:19:26.681Z,3.17
2022-12-17T19:21:59.862Z,3.25
2022-12-17T19:24:27.029Z,2.55
2022-12-17T19:26:54.173Z,2.90
2022-12-17T19:29:21.928Z,3.33
2022-12-17T19:31:49.237Z,2.67
2022-12-17T19:34:17.134Z,1.75
2022-12-17T19:36:45.031Z,1.95
2022-12-17T19:39:13.437Z,2.80
2022-12-17T19:41:40.613Z,2.30
2022-12-17T19:44:09.213Z,2.20
2022-12-17T19:46:37.047Z,2.50
2022-12-17T19:49:04.799Z,2.38
2022-12-17T19:51:32.528Z,2.50
2022-12-17T19:54:06.220Z,2.78
2022-12-17T19:56:35.782Z,2.47
2022-12-17T19:59:04.815Z,3.10
2022-12-17T20:01:33.267Z,2.08
2022-12-17T20:04:00.649Z,2.83
2022-12-17T20:06:29.292Z,2.55
2022-12-17T20:08:56.713Z,2.72
2022-12-17T20:11:33.120Z,2.97
2022-12-17T20:14:01.822Z,2.10
2022-12-17T20:16:30.122Z,2.38
2022-12-17T20:18:59.461Z,3.22
2022-12-17T20:21:26.604Z,3.35
2022-12-17T20:23:53.742Z,3.00
2022-12-17T20:26:21.225Z,3.08
2022-12-17T20:28:48.502Z,3.08
2022-12-17T20:31:16.142Z,2.83
2022-12-17T20:33:43.410Z,2.60
2022-12-17T20:36:12.245Z,2.10
2022-12-17T20:38:39.734Z,2.60
2022-12-17T20:41:14.669Z,2.22
2022-12-17T20:43:42.033Z,3.28
2022-12-17T20:46:09.875Z,3.25
2022-12-17T20:48:38.172Z,3.05
2022-12-17T20:51:09.102Z,3.85
2022-12-17T20:53:36.660Z,3.20
2022-12-17T20:56:08.009Z,3.85
2022-12-17T21:01:03.361Z,2.90
2022-12-17T21:03:32.480Z,3.60
2022-12-17T21:06:10.584Z,3.83
2022-12-17T21:08:39.790Z,3.03
2022-12-17T21:11:08.893Z,3.40
2022-12-17T21:13:36.824Z,3.70
2022-12-17T21:16:05.835Z,3.72
2022-12-17T21:18:33.789Z,3.65
2022-12-17T21:21:05.930Z,3.58
2022-12-17T21:23:33.851Z,4.25
2022-12-17T21:26:03.718Z,4.50
2022-12-17T21:28:37.335Z,3.65
2022-12-17T21:31:05.154Z,4.68
2022-12-17T21:33:32.501Z,4.72
2022-12-17T21:36:07.870Z,4.68
2022-12-17T21:38:35.466Z,4.63
2022-12-17T21:41:10.200Z,4.65
2022-12-17T21:43:37.839Z,5.18
2022-12-17T21:46:05.342Z,5.82
2022-12-17T21:48:39.718Z,6.70
2022-12-17T21:51:09.325Z,6.78
2022-12-17T21:53:38.783Z,5.20
2022-12-17T21:56:06.840Z,6.70
2022-12-17T21:58:38.087Z,7.25
2022-12-17T22:01:18.593Z,7.40
2022-12-17T22:03:47.211Z,7.55
2022-12-17T22:06:19.932Z,7.45
2022-12-17T22:08:48.450Z,8.30
2022-12-17T22:11:20.797Z,7.70
2022-12-17T22:14:13.809Z,7.55
2022-12-17T22:16:48.988Z,5.97
2022-12-17T22:19:17.577Z,6.90
2022-12-17T22:21:47.815Z,6.55
2022-12-17T22:24:19.075Z,8.10
2022-12-17T22:26:46.761Z,8.50
2022-12-17T22:29:34.242Z,9.18
2022-12-17T22:32:19.952Z,8.88
2022-12-17T22:35:54.162Z,8.55
2022-12-17T22:39:16.799Z,10.07
2022-12-17T22:43:23.158Z,8.07
2022-12-17T22:44:40.756Z,10.73
2022-12-17T22:46:19.726Z,9.38
2022-12-17T22:48:47.056Z,10.00
2022-12-17T22:51:29.026Z,11.13
2022-12-17T22:54:02.484Z,12.10
2022-12-17T22:56:53.657Z,12.43
2022-12-17T22:59:18.206Z,11.75
2022-12-17T23:01:45.679Z,12.20
2022-12-17T23:04:14.344Z,12.50
2022-12-17T23:06:42.102Z,12.10
2022-12-17T23:09:09.251Z,12.57
2022-12-17T23:11:36.402Z,10.70
2022-12-17T23:14:04.143Z,13.50
2022-12-17T23:16:31.358Z,10.52
2022-12-17T23:19:00.827Z,8.80
2022-12-17T23:21:28.406Z,8.55
2022-12-17T23:23:56.195Z,8.02
2022-12-17T23:26:27.910Z,9.27
2022-12-17T23:28:58.238Z,10.07
2022-12-17T23:31:25.987Z,9.25
2022-12-17T23:33:53.344Z,8.77
2022-12-17T23:36:21.838Z,10.00
2022-12-17T23:38:49.785Z,9.07
2022-12-17T23:41:18.774Z,7.20
2022-12-17T23:43:48.166Z,10.43
2022-12-17T23:46:15.437Z,9.88
2022-12-17T23:48:45.848Z,7.90
2022-12-17T23:51:14.254Z,10.88
2022-12-17T23:53:42.542Z,12.32
2022-12-17T23:56:12.274Z,11.00
2022-12-17T23:58:40.277Z,10.77
